sensor_id;sensor_type;location;lat;lon;timestamp;temperature;humidity
64869;DHT22;51349;52.424;10.840;2022-11-21T00:04:35;-1.10;99.90
64869;DHT22;51349;52.424;10.840;2022-11-21T00:09:35;-1.10;99.90
64869;DHT22;51349;52.424;10.840;2022-11-21T00:14:36;-1.10;99.90
64869;DHT22;51349;52.424;10.840;2022-11-21T00:19:36;-1.10;99.90
64869;DHT22;51349;52.424;10.840;2022-11-21T00:24:37;-1.10;99.90
64869;DHT22;51349;52.424;10.840;2022-11-21T00:29:38;-1.10;99.90
64869;DHT22;51349;52.424;10.840;2022-11-21T00:34:38;-1.10;99.90
64869;DHT22;51349;52.424;10.840;2022-11-21T00:39:42;-1.10;99.90
64869;DHT22;51349;52.424;10.840;2022-11-21T00:44:42;-1.10;99.90
64869;DHT22;51349;52.424;10.840;2022-11-21T00:49:43;-1.10;99.90
64869;DHT22;51349;52.424;10.840;2022-11-21T00:54:44;-1.10;99.90
64869;DHT22;51349;52.424;10.840;2022-11-21T00:59:44;-1.10;99.90
64869;DHT22;51349;52.424;10.840;2022-11-21T01:04:45;-1.10;99.90
64869;DHT22;51349;52.424;10.840;2022-11-21T01:09:45;-1.20;99.90
64869;DHT22;51349;52.424;10.840;2022-11-21T01:14:46;-1.10;99.90
64869;DHT22;51349;52.424;10.840;2022-11-21T01:19:46;-1.10;99.90
64869;DHT22;51349;52.424;10.840;2022-11-21T01:24:47;-1.10;99.90
64869;DHT22;51349;52.424;10.840;2022-11-21T01:29:48;-1.10;99.90
64869;DHT22;51349;52.424;10.840;2022-11-21T01:34:48;-1.10;99.90
64869;DHT22;51349;52.424;10.840;2022-11-21T01:39:49;-1.00;99.90
64869;DHT22;51349;52.424;10.840;2022-11-21T01:44:51;-1.10;99.90
64869;DHT22;51349;52.424;10.840;2022-11-21T01:49:53;-1.10;99.90
64869;DHT22;51349;52.424;10.840;2022-11-21T01:55:01;-1.10;99.90
64869;DHT22;51349;52.424;10.840;2022-11-21T02:00:12;-1.10;99.90
64869;DHT22;51349;52.424;10.840;2022-11-21T02:05:27;-1.10;99.90
64869;DHT22;51349;52.424;10.840;2022-11-21T02:10:28;-1.10;99.90
64869;DHT22;51349;52.424;10.840;2022-11-21T02:15:32;-1.00;99.90
64869;DHT22;51349;52.424;10.840;2022-11-21T02:20:33;-1.00;99.90
64869;DHT22;51349;52.424;10.840;2022-11-21T02:25:36;-1.10;99.90
64869;DHT22;51349;52.424;10.840;2022-11-21T02:30:42;-1.10;99.90
64869;DHT22;51349;52.424;10.840;2022-11-21T02:35:43;-1.20;99.90
64869;DHT22;51349;52.424;10.840;2022-11-21T02:40:54;-1.20;99.90
64869;DHT22;51349;52.424;10.840;2022-11-21T02:45:55;-1.30;99.90
64869;DHT22;51349;52.424;10.840;2022-11-21T02:50:56;-1.30;99.90
64869;DHT22;51349;52.424;10.840;2022-11-21T02:55:56;-1.30;99.90
64869;DHT22;51349;52.424;10.840;2022-11-21T03:00:57;-1.30;99.90
64869;DHT22;51349;52.424;10.840;2022-11-21T03:05:57;-1.30;99.90
64869;DHT22;51349;52.424;10.840;2022-11-21T03:10:58;-1.30;99.90
64869;DHT22;51349;52.424;10.840;2022-11-21T03:15:59;-1.30;99.90
64869;DHT22;51349;52.424;10.840;2022-11-21T03:21:02;-1.40;99.90
64869;DHT22;51349;52.424;10.840;2022-11-21T03:26:03;-1.40;99.90
64869;DHT22;51349;52.424;10.840;2022-11-21T03:31:03;-1.50;99.90
64869;DHT22;51349;52.424;10.840;2022-11-21T03:36:04;-1.50;99.90
64869;DHT22;51349;52.424;10.840;2022-11-21T03:41:05;-1.60;99.90
64869;DHT22;51349;52.424;10.840;2022-11-21T03:46:30;-1.70;99.90
64869;DHT22;51349;52.424;10.840;2022-11-21T03:51:32;-1.80;99.90
64869;DHT22;51349;52.424;10.840;2022-11-21T03:56:33;-1.90;99.90
64869;DHT22;51349;52.424;10.840;2022-11-21T04:01:34;-2.00;99.90
64869;DHT22;51349;52.424;10.840;2022-11-21T04:06:34;-2.00;99.90
64869;DHT22;51349;52.424;10.840;2022-11-21T04:11:35;-2.00;99.90
64869;DHT22;51349;52.424;10.840;2022-11-21T04:16:35;-2.10;99.90
64869;DHT22;51349;52.424;10.840;2022-11-21T04:21:36;-2.20;99.90
64869;DHT22;51349;52.424;10.840;2022-11-21T04:26:37;-2.30;99.90
64869;DHT22;51349;52.424;10.840;2022-11-21T04:31:37;-2.40;99.90
64869;DHT22;51349;52.424;10.840;2022-11-21T04:36:38;-2.50;99.90
64869;DHT22;51349;52.424;10.840;2022-11-21T04:41:38;-2.70;99.90
64869;DHT22;51349;52.424;10.840;2022-11-21T04:46:39;-2.80;99.90
64869;DHT22;51349;52.424;10.840;2022-11-21T04:51:39;-2.80;99.90
64869;DHT22;51349;52.424;10.840;2022-11-21T04:56:40;-3.00;99.90
64869;DHT22;51349;52.424;10.840;2022-11-21T05:01:40;-3.00;99.90
64869;DHT22;51349;52.424;10.840;2022-11-21T05:06:41;-3.10;99.90
64869;DHT22;51349;52.424;10.840;2022-11-21T05:11:42;-3.10;99.90
64869;DHT22;51349;52.424;10.840;2022-11-21T05:17:01;-3.10;99.90
64869;DHT22;51349;52.424;10.840;2022-11-21T05:22:01;-3.20;99.90
64869;DHT22;51349;52.424;10.840;2022-11-21T05:27:02;-3.10;99.90
64869;DHT22;51349;52.424;10.840;2022-11-21T05:32:03;-3.10;99.90
64869;DHT22;51349;52.424;10.840;2022-11-21T05:37:03;-3.20;99.90
64869;DHT22;51349;52.424;10.840;2022-11-21T05:42:04;-3.20;99.90
64869;DHT22;51349;52.424;10.840;2022-11-21T05:47:05;-3.10;99.90
64869;DHT22;51349;52.424;10.840;2022-11-21T05:52:05;-3.20;99.90
64869;DHT22;51349;52.424;10.840;2022-11-21T05:57:06;-3.10;99.90
64869;DHT22;51349;52.424;10.840;2022-11-21T06:02:06;-3.20;99.90
64869;DHT22;51349;52.424;10.840;2022-11-21T06:07:25;-3.10;99.90
64869;DHT22;51349;52.424;10.840;2022-11-21T06:12:26;-3.20;99.90
64869;DHT22;51349;52.424;10.840;2022-11-21T06:17:26;-3.20;99.90
64869;DHT22;51349;52.424;10.840;2022-11-21T06:22:27;-3.20;99.90
64869;DHT22;51349;52.424;10.840;2022-11-21T06:27:28;-3.20;99.90
64869;DHT22;51349;52.424;10.840;2022-11-21T06:32:29;-3.40;99.90
64869;DHT22;51349;52.424;10.840;2022-11-21T06:37:29;-3.30;99.90
64869;DHT22;51349;52.424;10.840;2022-11-21T06:42:31;-3.40;99.90
64869;DHT22;51349;52.424;10.840;2022-11-21T06:47:35;-3.50;99.90
64869;DHT22;51349;52.424;10.840;2022-11-21T06:52:35;-3.40;99.90
64869;DHT22;51349;52.424;10.840;2022-11-21T06:57:36;-3.40;99.90
64869;DHT22;51349;52.424;10.840;2022-11-21T07:02:37;-3.30;99.90
64869;DHT22;51349;52.424;10.840;2022-11-21T07:07:37;-3.40;99.90
64869;DHT22;51349;52.424;10.840;2022-11-21T07:12:38;-3.30;99.90
64869;DHT22;51349;52.424;10.840;2022-11-21T07:17:57;-3.40;99.90
64869;DHT22;51349;52.424;10.840;2022-11-21T07:22:58;-3.30;99.90
64869;DHT22;51349;52.424;10.840;2022-11-21T07:28:00;-3.30;99.90
64869;DHT22;51349;52.424;10.840;2022-11-21T07:33:03;-3.20;99.90
64869;DHT22;51349;52.424;10.840;2022-11-21T07:38:04;-3.20;99.90
64869;DHT22;51349;52.424;10.840;2022-11-21T07:43:05;-3.20;99.90
64869;DHT22;51349;52.424;10.840;2022-11-21T07:48:06;-3.10;99.90
64869;DHT22;51349;52.424;10.840;2022-11-21T07:53:09;-3.10;99.90
64869;DHT22;51349;52.424;10.840;2022-11-21T07:58:11;-3.00;99.90
64869;DHT22;51349;52.424;10.840;2022-11-21T08:03:12;-2.90;99.90
64869;DHT22;51349;52.424;10.840;2022-11-21T08:08:13;-3.00;99.90
64869;DHT22;51349;52.424;10.840;2022-11-21T08:13:14;-3.00;99.90
64869;DHT22;51349;52.424;10.840;2022-11-21T08:18:16;-2.90;99.90
64869;DHT22;51349;52.424;10.840;2022-11-21T08:23:20;-2.80;99.90
64869;DHT22;51349;52.424;10.840;2022-11-21T08:28:20;-2.60;99.90
64869;DHT22;51349;52.424;10.840;2022-11-21T08:33:21;-2.50;99.90
64869;DHT22;51349;52.424;10.840;2022-11-21T08:38:22;-2.30;99.90
64869;DHT22;51349;52.424;10.840;2022-11-21T08:43:22;-2.30;99.90
64869;DHT22;51349;52.424;10.840;2022-11-21T08:48:23;-2.20;99.90
64869;DHT22;51349;52.424;10.840;2022-11-21T08:53:23;-2.10;99.90
64869;DHT22;51349;52.424;10.840;2022-11-21T08:58:24;-2.20;99.90
64869;DHT22;51349;52.424;10.840;2022-11-21T09:03:25;-2.00;99.90
64869;DHT22;51349;52.424;10.840;2022-11-21T09:08:26;-1.70;99.90
64869;DHT22;51349;52.424;10.840;2022-11-21T09:13:26;-1.50;99.90
64869;DHT22;51349;52.424;10.840;2022-11-21T09:18:27;-1.50;99.90
64869;DHT22;51349;52.424;10.840;2022-11-21T09:23:27;-1.80;99.90
64869;DHT22;51349;52.424;10.840;2022-11-21T09:28:28;-1.60;99.90
64869;DHT22;51349;52.424;10.840;2022-11-21T09:33:29;-1.50;99.90
64869;DHT22;51349;52.424;10.840;2022-11-21T09:38:29;-1.30;99.90
64869;DHT22;51349;52.424;10.840;2022-11-21T09:43:45;-1.10;99.90
64869;DHT22;51349;52.424;10.840;2022-11-21T09:48:56;-1.00;99.90
64869;DHT22;51349;52.424;10.840;2022-11-21T09:54:17;-0.80;99.90
64869;DHT22;51349;52.424;10.840;2022-11-21T09:59:34;-0.70;99.90
64869;DHT22;51349;52.424;10.840;2022-11-21T10:04:35;-0.80;99.90
64869;DHT22;51349;52.424;10.840;2022-11-21T10:25:33;-0.30;99.90
64869;DHT22;51349;52.424;10.840;2022-11-21T10:30:41;-0.20;99.90
64869;DHT22;51349;52.424;10.840;2022-11-21T10:35:50;-0.20;99.90
64869;DHT22;51349;52.424;10.840;2022-11-21T10:46:12;0.20;99.90
64869;DHT22;51349;52.424;10.840;2022-11-21T10:56:20;0.70;99.90
64869;DHT22;51349;52.424;10.840;2022-11-21T11:01:22;2.30;99.90
64869;DHT22;51349;52.424;10.840;2022-11-21T11:06:27;4.70;99.90
64869;DHT22;51349;52.424;10.840;2022-11-21T11:11:28;3.30;99.90
64869;DHT22;51349;52.424;10.840;2022-11-21T11:16:30;2.60;99.90
64869;DHT22;51349;52.424;10.840;2022-11-21T11:31:51;8.70;99.90
64869;DHT22;51349;52.424;10.840;2022-11-21T11:42:30;10.50;99.90
64869;DHT22;51349;52.424;10.840;2022-11-21T11:47:55;11.90;99.90
64869;DHT22;51349;52.424;10.840;2022-11-21T12:04:18;11.60;99.40
64869;DHT22;51349;52.424;10.840;2022-11-21T12:09:31;11.80;96.50
64869;DHT22;51349;52.424;10.840;2022-11-21T12:14:56;12.30;94.70
64869;DHT22;51349;52.424;10.840;2022-11-21T12:20:44;9.60;95.90
64869;DHT22;51349;52.424;10.840;2022-11-21T12:25:48;11.20;95.10
64869;DHT22;51349;52.424;10.840;2022-11-21T12:31:01;11.10;93.30
64869;DHT22;51349;52.424;10.840;2022-11-21T12:53:05;11.20;90.60
64869;DHT22;51349;52.424;10.840;2022-11-21T12:58:38;9.90;92.10
64869;DHT22;51349;52.424;10.840;2022-11-21T13:04:00;9.70;91.40
64869;DHT22;51349;52.424;10.840;2022-11-21T13:09:06;7.30;93.50
64869;DHT22;51349;52.424;10.840;2022-11-21T13:45:49;3.60;99.90
64869;DHT22;51349;52.424;10.840;2022-11-21T14:06:41;3.80;99.90
64869;DHT22;51349;52.424;10.840;2022-11-21T14:22:26;2.30;99.90
64869;DHT22;51349;52.424;10.840;2022-11-21T14:27:32;2.10;99.90
64869;DHT22;51349;52.424;10.840;2022-11-21T14:32:37;1.90;99.90
64869;DHT22;51349;52.424;10.840;2022-11-21T14:37:41;1.70;99.90
64869;DHT22;51349;52.424;10.840;2022-11-21T14:42:41;1.60;99.90
64869;DHT22;51349;52.424;10.840;2022-11-21T14:47:49;1.40;99.90
64869;DHT22;51349;52.424;10.840;2022-11-21T14:52:51;1.30;99.90
64869;DHT22;51349;52.424;10.840;2022-11-21T14:58:00;1.10;99.90
64869;DHT22;51349;52.424;10.840;2022-11-21T15:03:03;0.90;99.90
64869;DHT22;51349;52.424;10.840;2022-11-21T15:08:04;0.80;99.90
64869;DHT22;51349;52.424;10.840;2022-11-21T15:13:10;0.60;99.90
64869;DHT22;51349;52.424;10.840;2022-11-21T15:18:20;0.50;99.90
64869;DHT22;51349;52.424;10.840;2022-11-21T15:23:32;0.40;99.90
64869;DHT22;51349;52.424;10.840;2022-11-21T15:28:33;0.20;99.90
64869;DHT22;51349;52.424;10.840;2022-11-21T15:33:59;0.20;99.90
64869;DHT22;51349;52.424;10.840;2022-11-21T15:39:02;0.00;99.90
64869;DHT22;51349;52.424;10.840;2022-11-21T15:49:05;-0.20;99.90
64869;DHT22;51349;52.424;10.840;2022-11-21T15:54:11;-0.40;99.90
64869;DHT22;51349;52.424;10.840;2022-11-21T15:59:13;-0.60;99.90
64869;DHT22;51349;52.424;10.840;2022-11-21T16:04:13;-0.50;99.90
64869;DHT22;51349;52.424;10.840;2022-11-21T16:09:14;-0.40;99.90
64869;DHT22;51349;52.424;10.840;2022-11-21T16:14:15;-0.50;99.90
64869;DHT22;51349;52.424;10.840;2022-11-21T16:19:17;-0.60;99.90
64869;DHT22;51349;52.424;10.840;2022-11-21T16:24:18;-0.70;99.90
64869;DHT22;51349;52.424;10.840;2022-11-21T16:29:18;-0.70;99.90
64869;DHT22;51349;52.424;10.840;2022-11-21T16:34:19;-0.80;99.90
64869;DHT22;51349;52.424;10.840;2022-11-21T16:39:19;-0.80;99.90
64869;DHT22;51349;52.424;10.840;2022-11-21T16:44:20;-0.80;99.90
64869;DHT22;51349;52.424;10.840;2022-11-21T16:49:21;-0.70;99.90
64869;DHT22;51349;52.424;10.840;2022-11-21T16:54:22;-0.80;99.90
64869;DHT22;51349;52.424;10.840;2022-11-21T16:59:25;-0.80;99.90
64869;DHT22;51349;52.424;10.840;2022-11-21T17:04:25;-0.90;99.90
64869;DHT22;51349;52.424;10.840;2022-11-21T17:09:26;-1.00;99.90
64869;DHT22;51349;52.424;10.840;2022-11-21T17:14:26;-1.10;99.90
64869;DHT22;51349;52.424;10.840;2022-11-21T17:19:27;-1.00;99.90
64869;DHT22;51349;52.424;10.840;2022-11-21T17:24:28;-1.00;99.90
64869;DHT22;51349;52.424;10.840;2022-11-21T17:29:29;-1.10;99.90
64869;DHT22;51349;52.424;10.840;2022-11-21T17:34:29;-0.90;99.90
64869;DHT22;51349;52.424;10.840;2022-11-21T17:39:30;-1.00;99.90
64869;DHT22;51349;52.424;10.840;2022-11-21T17:44:30;-1.00;99.90
64869;DHT22;51349;52.424;10.840;2022-11-21T17:49:32;-1.00;99.90
64869;DHT22;51349;52.424;10.840;2022-11-21T17:54:36;-1.10;99.90
64869;DHT22;51349;52.424;10.840;2022-11-21T17:59:37;-1.20;99.90
64869;DHT22;51349;52.424;10.840;2022-11-21T18:04:38;-1.20;99.90
64869;DHT22;51349;52.424;10.840;2022-11-21T18:09:39;-1.30;99.90
64869;DHT22;51349;52.424;10.840;2022-11-21T18:14:40;-1.30;99.90
64869;DHT22;51349;52.424;10.840;2022-11-21T18:19:40;-1.40;99.90
64869;DHT22;51349;52.424;10.840;2022-11-21T18:24:41;-1.40;99.90
64869;DHT22;51349;52.424;10.840;2022-11-21T18:29:41;-1.50;99.90
64869;DHT22;51349;52.424;10.840;2022-11-21T18:34:42;-1.50;99.90
64869;DHT22;51349;52.424;10.840;2022-11-21T18:39:43;-1.50;99.90
64869;DHT22;51349;52.424;10.840;2022-11-21T18:44:43;-1.60;99.90
64869;DHT22;51349;52.424;10.840;2022-11-21T18:49:44;-1.60;99.90
64869;DHT22;51349;52.424;10.840;2022-11-21T18:54:44;-1.60;99.90
64869;DHT22;51349;52.424;10.840;2022-11-21T18:59:45;-1.60;99.90
64869;DHT22;51349;52.424;10.840;2022-11-21T19:04:46;-1.60;99.90
64869;DHT22;51349;52.424;10.840;2022-11-21T19:09:47;-1.60;99.90
64869;DHT22;51349;52.424;10.840;2022-11-21T19:14:47;-1.60;99.90
64869;DHT22;51349;52.424;10.840;2022-11-21T19:19:51;-1.70;99.90
64869;DHT22;51349;52.424;10.840;2022-11-21T19:24:51;-1.70;99.90
64869;DHT22;51349;52.424;10.840;2022-11-21T19:29:52;-1.70;99.90
64869;DHT22;51349;52.424;10.840;2022-11-21T19:34:54;-1.70;99.90
64869;DHT22;51349;52.424;10.840;2022-11-21T19:39:55;-1.70;99.90
64869;DHT22;51349;52.424;10.840;2022-11-21T19:44:55;-1.80;99.90
64869;DHT22;51349;52.424;10.840;2022-11-21T19:49:57;-1.80;99.90
64869;DHT22;51349;52.424;10.840;2022-11-21T19:54:58;-1.80;99.90
64869;DHT22;51349;52.424;10.840;2022-11-21T19:59:58;-1.90;99.90
64869;DHT22;51349;52.424;10.840;2022-11-21T20:04:59;-1.80;99.90
64869;DHT22;51349;52.424;10.840;2022-11-21T20:09:59;-1.80;99.90
64869;DHT22;51349;52.424;10.840;2022-11-21T20:15:01;-1.80;99.90
64869;DHT22;51349;52.424;10.840;2022-11-21T20:20:02;-1.80;99.90
64869;DHT22;51349;52.424;10.840;2022-11-21T20:25:03;-1.70;99.90
64869;DHT22;51349;52.424;10.840;2022-11-21T20:30:04;-1.70;99.90
64869;DHT22;51349;52.424;10.840;2022-11-21T20:35:05;-1.50;99.90
64869;DHT22;51349;52.424;10.840;2022-11-21T20:40:06;-1.50;99.90
64869;DHT22;51349;52.424;10.840;2022-11-21T20:45:07;-1.40;99.90
64869;DHT22;51349;52.424;10.840;2022-11-21T20:50:08;-1.30;99.90
64869;DHT22;51349;52.424;10.840;2022-11-21T20:55:09;-1.30;99.90
64869;DHT22;51349;52.424;10.840;2022-11-21T21:00:10;-1.20;99.90
64869;DHT22;51349;52.424;10.840;2022-11-21T21:05:11;-1.20;99.90
64869;DHT22;51349;52.424;10.840;2022-11-21T21:10:12;-1.10;99.90
64869;DHT22;51349;52.424;10.840;2022-11-21T21:15:12;-1.00;99.90
64869;DHT22;51349;52.424;10.840;2022-11-21T21:20:13;-1.00;99.90
64869;DHT22;51349;52.424;10.840;2022-11-21T21:25:14;-0.90;99.90
64869;DHT22;51349;52.424;10.840;2022-11-21T21:30:16;-0.90;99.90
64869;DHT22;51349;52.424;10.840;2022-11-21T21:35:16;-0.80;99.90
64869;DHT22;51349;52.424;10.840;2022-11-21T21:40:17;-0.70;99.90
64869;DHT22;51349;52.424;10.840;2022-11-21T21:45:17;-0.70;99.90
64869;DHT22;51349;52.424;10.840;2022-11-21T21:50:18;-0.60;99.90
64869;DHT22;51349;52.424;10.840;2022-11-21T21:55:19;-0.60;99.90
64869;DHT22;51349;52.424;10.840;2022-11-21T22:00:19;-0.60;99.90
64869;DHT22;51349;52.424;10.840;2022-11-21T22:05:20;-0.50;99.90
64869;DHT22;51349;52.424;10.840;2022-11-21T22:10:20;-0.50;99.90
64869;DHT22;51349;52.424;10.840;2022-11-21T22:15:21;-0.40;99.90
64869;DHT22;51349;52.424;10.840;2022-11-21T22:20:21;-0.40;99.90
64869;DHT22;51349;52.424;10.840;2022-11-21T22:25:22;-0.40;99.90
64869;DHT22;51349;52.424;10.840;2022-11-21T22:30:22;-0.30;99.90
64869;DHT22;51349;52.424;10.840;2022-11-21T22:35:23;-0.40;99.90
64869;DHT22;51349;52.424;10.840;2022-11-21T22:40:24;-0.30;99.90
64869;DHT22;51349;52.424;10.840;2022-11-21T22:45:25;-0.30;99.90
64869;DHT22;51349;52.424;10.840;2022-11-21T22:50:26;-0.30;99.90
64869;DHT22;51349;52.424;10.840;2022-11-21T22:55:27;-0.20;99.90
64869;DHT22;51349;52.424;10.840;2022-11-21T23:00:27;-0.30;99.90
64869;DHT22;51349;52.424;10.840;2022-11-21T23:05:28;-0.30;99.90
64869;DHT22;51349;52.424;10.840;2022-11-21T23:10:28;-0.20;99.90
64869;DHT22;51349;52.424;10.840;2022-11-21T23:15:29;-0.20;99.90
64869;DHT22;51349;52.424;10.840;2022-11-21T23:20:30;-0.30;99.90
64869;DHT22;51349;52.424;10.840;2022-11-21T23:25:30;-0.20;99.90
64869;DHT22;51349;52.424;10.840;2022-11-21T23:30:31;-0.20;99.90
64869;DHT22;51349;52.424;10.840;2022-11-21T23:35:31;-0.20;99.90
64869;DHT22;51349;52.424;10.840;2022-11-21T23:40:32;-0.20;99.90
64869;DHT22;51349;52.424;10.840;2022-11-21T23:45:33;-0.20;99.90
64869;DHT22;51349;52.424;10.840;2022-11-21T23:50:33;-0.30;99.90
64869;DHT22;51349;52.424;10.840;2022-11-21T23:55:34;-0.30;99.90
